首页
METAR-TAF:

METAR-TAF

机场 :

劍橋, 英格兰

纬度: 52-12N, 经度: 000-11E, 海拔: 15米

当前天气观测

该预报发布于40分钟前的09:50 UTC
风速9节,风向
温度 7°C
湿度 93%
气压 1005 hPa
能見度: 8000
少量云层高于2500英尺

METAR: EGSC 150950Z 01009KT 8000 FEW025 07/06 Q1005

时间: 10:30 (10:30 UTC)

预报

该预报发布于1小时和53分钟前的08:37 UTC
预报有效从15日的 09点(UTC)到 15日的 18点(UTC)
风速10节,风向北转东北
能见度10公里或以上
散云层高于3000英尺
几率 30% :
短暂存在
从 15日的 09点(UTC)到 15日的 11点(UTC)
能見度: 6000
多云层高于900英尺
短暂存在
从 15日的 12点(UTC)到 15日的 18点(UTC)
风速15节,风向北转东北,有时为25节阵风
短暂存在
从 15日的 15点(UTC)到 15日的 18点(UTC)
能見度: 6000
多云层高于1200英尺
阵雨, 雨

TAF: EGSC 150837Z 1509/1518 02010KT 9999 SCT030 PROB30 TEMPO 1509/1511 6000 RA BKN009 TEMPO 1512/1518 02015G25KT TEMPO 1515/1518 6000 SHRA RA BKN012

超过4000个机场的气象观测和天气预报(METAR&TAF报告)。

可查询的气象台以黄色和红色小点在地图上表示。

将鼠标移到小点上方,可查看气象台名称。

然后点击查看天气观测和预报。

如需切换地图:点击带黑十字的绿色按钮放大地图;点击带横线的绿色按钮缩小地图;或者点击绿色箭头查看邻近地区的地图。


METAR-TAF: